createdAt,value
2019-01-05T00:00:39.860Z,16.30
2019-01-05T00:03:26.397Z,15.10
2019-01-05T00:06:12.857Z,13.13
2019-01-05T00:08:42.748Z,13.97
2019-01-05T00:11:24.928Z,14.50
2019-01-05T00:14:03.767Z,14.30
2019-01-05T00:16:45.904Z,14.10
2019-01-05T00:19:21.703Z,12.97
2019-01-05T00:21:54.223Z,12.30
2019-01-05T00:24:24.134Z,11.90
2019-01-05T00:27:03.035Z,12.53
2019-01-05T00:29:35.309Z,12.00
2019-01-05T00:32:26.698Z,12.53
2019-01-05T00:34:56.589Z,12.17
2019-01-05T00:37:26.463Z,12.50
2019-01-05T00:39:56.523Z,12.30
2019-01-05T00:42:26.404Z,10.43
2019-01-05T00:45:04.939Z,11.40
2019-01-05T00:47:43.558Z,12.27
2019-01-05T00:50:13.512Z,11.97
2019-01-05T00:52:59.647Z,11.67
2019-01-05T00:55:45.685Z,12.90
2019-01-05T00:58:15.572Z,10.53
2019-01-05T01:00:45.470Z,10.90
2019-01-05T01:03:27.498Z,10.97
2019-01-05T01:06:00.066Z,11.03
2019-01-05T01:08:29.952Z,12.33
2019-01-05T01:10:59.840Z,10.50
2019-01-05T01:13:29.737Z,11.03
2019-01-05T01:16:02.261Z,11.57
2019-01-05T01:18:34.798Z,12.13
2019-01-05T01:21:10.635Z,11.90
2019-01-05T01:23:56.889Z,11.00
2019-01-05T01:26:35.642Z,12.33
2019-01-05T01:29:11.490Z,10.87
2019-01-05T01:31:41.378Z,11.63
2019-01-05T01:34:14.208Z,10.77
2019-01-05T01:36:50.032Z,11.87
2019-01-05T01:39:21.847Z,11.80
2019-01-05T01:42:08.091Z,11.10
2019-01-05T01:44:55.887Z,11.90
2019-01-05T01:47:42.202Z,11.17
2019-01-05T01:50:14.809Z,11.17
2019-01-05T01:53:00.675Z,11.83
2019-01-05T01:55:48.642Z,11.20
2019-01-05T01:58:34.524Z,11.63
2019-01-05T02:01:04.421Z,11.90
2019-01-05T02:03:34.305Z,11.83
2019-01-05T02:06:20.707Z,11.53
2019-01-05T02:08:50.965Z,11.03
2019-01-05T02:11:38.954Z,11.20
2019-01-05T02:14:11.879Z,11.23
2019-01-05T02:16:59.879Z,11.37
2019-01-05T02:19:32.511Z,11.33
2019-01-05T02:22:23.541Z,11.67
2019-01-05T02:25:11.358Z,11.83
2019-01-05T02:27:46.968Z,10.80
2019-01-05T02:30:31.665Z,11.40
2019-01-05T02:33:07.848Z,9.43
2019-01-05T02:36:11.807Z,9.70
2019-01-05T02:39:08.720Z,9.13
2019-01-05T02:42:02.188Z,9.70
2019-01-05T02:44:54.712Z,8.57
2019-01-05T02:47:45.716Z,8.33
2019-01-05T02:50:24.426Z,7.40
2019-01-05T02:53:33.436Z,6.83
2019-01-05T02:56:31.653Z,6.07
2019-01-05T02:59:37.490Z,5.93
2019-01-05T03:02:47.997Z,5.13
2019-01-05T03:05:43.731Z,5.23
2019-01-05T03:08:25.312Z,4.47
2019-01-05T03:11:26.671Z,5.20
2019-01-05T03:14:34.035Z,4.80
2019-01-05T03:17:24.490Z,4.87
2019-01-05T03:20:23.583Z,4.10
2019-01-05T03:23:08.384Z,4.20
2019-01-05T03:26:26.925Z,4.10
2019-01-05T03:29:36.159Z,3.90
2019-01-05T03:32:42.102Z,3.53
2019-01-05T03:35:38.794Z,3.33
2019-01-05T03:38:40.065Z,3.43
2019-01-05T03:41:44.467Z,3.03
2019-01-05T03:44:55.060Z,3.27
2019-01-05T03:47:36.923Z,2.70
2019-01-05T03:50:42.535Z,2.97
2019-01-05T03:53:36.270Z,3.13
2019-01-05T03:56:27.630Z,2.77
2019-01-05T03:59:09.583Z,2.57
2019-01-05T04:02:10.791Z,2.60
2019-01-05T04:05:07.656Z,3.13
2019-01-05T04:08:07.659Z,2.53
2019-01-05T04:11:07.760Z,2.30
2019-01-05T04:13:58.395Z,2.67
2019-01-05T04:16:37.169Z,2.47
2019-01-05T04:19:49.193Z,2.20
2019-01-05T04:22:59.789Z,1.90
2019-01-05T04:25:59.839Z,2.73
2019-01-05T04:28:52.089Z,2.77
2019-01-05T04:31:59.219Z,2.60
2019-01-05T04:35:02.767Z,2.63
2019-01-05T04:38:04.397Z,2.50
2019-01-05T04:41:10.395Z,2.77
2019-01-05T04:44:13.228Z,2.10
2019-01-05T04:47:13.840Z,2.27
2019-01-05T04:50:15.871Z,2.83
2019-01-05T04:53:03.765Z,3.10
2019-01-05T04:55:53.786Z,2.70
2019-01-05T04:59:01.676Z,2.50
2019-01-05T05:01:47.117Z,2.47
2019-01-05T05:04:54.449Z,2.67
2019-01-05T05:07:47.190Z,2.37
2019-01-05T05:11:08.159Z,2.70
2019-01-05T05:14:21.786Z,2.60
2019-01-05T05:17:23.408Z,3.23
2019-01-05T05:20:17.351Z,3.33
2019-01-05T05:23:33.056Z,3.20
2019-01-05T05:26:41.197Z,3.07
2019-01-05T05:29:32.273Z,3.53
2019-01-05T05:32:20.720Z,3.20
2019-01-05T05:35:34.666Z,3.60
2019-01-05T05:38:27.268Z,3.97
2019-01-05T05:41:22.612Z,3.77
2019-01-05T05:44:22.640Z,3.60
2019-01-05T05:47:24.272Z,3.43
2019-01-05T05:50:30.138Z,3.67
2019-01-05T05:53:08.933Z,3.87
2019-01-05T05:55:42.068Z,3.90
2019-01-05T05:58:42.291Z,4.53
2019-01-05T06:01:51.225Z,4.37
2019-01-05T06:04:46.675Z,4.50
2019-01-05T06:07:31.822Z,4.87
2019-01-05T06:10:40.595Z,4.87
2019-01-05T06:13:33.320Z,4.83
2019-01-05T06:16:37.745Z,4.27
2019-01-05T06:19:28.824Z,3.90
2019-01-05T06:22:22.908Z,4.20
2019-01-05T06:25:32.601Z,4.03
2019-01-05T06:28:54.901Z,4.17
2019-01-05T06:32:04.520Z,4.93
2019-01-05T06:34:49.360Z,3.80
2019-01-05T06:37:34.392Z,4.40
2019-01-05T06:43:35.772Z,4.53
2019-01-05T06:46:38.235Z,4.10
2019-01-05T06:49:52.173Z,4.80
2019-01-05T06:52:43.219Z,4.83
2019-01-05T06:55:22.222Z,5.50
2019-01-05T06:58:31.348Z,4.40
2019-01-05T07:01:21.260Z,4.67
2019-01-05T07:04:26.182Z,4.53
2019-01-05T07:07:32.281Z,5.60
2019-01-05T07:10:23.210Z,5.17
2019-01-05T07:13:04.973Z,5.47
2019-01-05T07:15:58.575Z,9.23
2019-01-05T07:19:07.971Z,8.23
2019-01-05T07:22:13.015Z,6.40
2019-01-05T07:25:20.753Z,6.57
2019-01-05T07:28:30.192Z,5.73
2019-01-05T07:31:25.939Z,6.60
2019-01-05T07:34:21.199Z,5.93
2019-01-05T07:36:54.340Z,7.20
2019-01-05T07:40:05.611Z,6.70
2019-01-05T07:43:04.312Z,5.63
2019-01-05T07:46:05.564Z,5.37
2019-01-05T07:49:12.007Z,6.17
2019-01-05T07:52:27.674Z,5.57
2019-01-05T07:55:25.845Z,6.00
2019-01-05T07:58:10.802Z,6.20
2019-01-05T08:01:17.459Z,6.33
2019-01-05T08:04:03.412Z,6.97
2019-01-05T08:07:19.381Z,6.97
2019-01-05T08:10:10.892Z,7.07
2019-01-05T08:13:11.000Z,6.40
2019-01-05T08:15:55.992Z,6.87
2019-01-05T08:19:02.942Z,8.27
2019-01-05T08:22:05.782Z,6.17
2019-01-05T08:25:22.192Z,6.70
2019-01-05T08:28:28.092Z,6.60
2019-01-05T08:31:20.522Z,7.00
2019-01-05T08:34:02.255Z,6.53
2019-01-05T08:36:53.631Z,7.20
2019-01-05T08:40:01.706Z,8.53
2019-01-05T08:43:17.757Z,6.37
2019-01-05T08:46:23.739Z,6.77
2019-01-05T08:49:18.869Z,6.73
2019-01-05T08:52:08.043Z,7.40
2019-01-05T08:55:05.023Z,8.80
2019-01-05T08:58:09.611Z,6.50
2019-01-05T09:01:08.115Z,6.80
2019-01-05T09:03:58.616Z,6.13
2019-01-05T09:06:48.961Z,5.50
2019-01-05T09:09:52.173Z,6.13
2019-01-05T09:12:43.031Z,6.00
2019-01-05T09:15:19.021Z,5.90
2019-01-05T09:18:20.076Z,5.63
2019-01-05T09:21:36.282Z,6.17
2019-01-05T09:24:31.653Z,6.00
2019-01-05T09:27:29.219Z,5.50
2019-01-05T09:30:16.955Z,6.10
2019-01-05T09:33:29.235Z,5.73
2019-01-05T09:36:34.075Z,6.80
2019-01-05T09:39:29.325Z,5.67
2019-01-05T09:42:35.221Z,6.73
2019-01-05T09:45:27.528Z,5.57
2019-01-05T09:48:45.072Z,4.90
2019-01-05T09:51:29.583Z,5.03
2019-01-05T09:54:19.051Z,5.20
2019-01-05T09:57:18.760Z,4.80
2019-01-05T10:00:20.718Z,6.07
2019-01-05T10:02:59.586Z,4.83
2019-01-05T10:05:35.111Z,4.57
2019-01-05T10:08:30.119Z,5.27
2019-01-05T10:11:24.215Z,4.87
2019-01-05T10:14:08.948Z,4.70
2019-01-05T10:17:13.483Z,4.93
2019-01-05T10:20:08.846Z,3.70
2019-01-05T10:22:59.776Z,3.87
2019-01-05T10:25:50.497Z,3.60
2019-01-05T10:28:38.013Z,4.77
2019-01-05T10:31:25.999Z,4.30
2019-01-05T10:34:22.555Z,4.43
2019-01-05T10:37:13.241Z,3.90
2019-01-05T10:40:11.462Z,3.67
2019-01-05T10:42:56.431Z,4.37
2019-01-05T10:45:44.077Z,4.23
2019-01-05T10:48:34.963Z,3.80
2019-01-05T10:51:33.066Z,4.10
2019-01-05T10:54:31.565Z,4.67
2019-01-05T10:57:43.707Z,4.27
2019-01-05T11:00:28.550Z,3.63
2019-01-05T11:03:38.775Z,4.60
2019-01-05T11:06:46.239Z,4.07
2019-01-05T11:09:39.996Z,4.03
2019-01-05T11:12:43.851Z,3.67
2019-01-05T11:15:48.477Z,6.93
2019-01-05T11:18:48.312Z,5.53
2019-01-05T11:21:43.496Z,4.73
2019-01-05T11:24:49.326Z,3.93
2019-01-05T11:28:10.041Z,3.93
2019-01-05T11:31:20.321Z,4.33
2019-01-05T11:34:21.591Z,4.13
2019-01-05T11:37:13.667Z,4.70
2019-01-05T11:40:03.215Z,4.10
2019-01-05T11:42:55.632Z,4.43
2019-01-05T11:46:10.463Z,4.63
2019-01-05T11:49:07.212Z,4.37
2019-01-05T11:51:57.961Z,4.37
2019-01-05T11:54:53.116Z,4.60
2019-01-05T11:57:49.980Z,4.43
2019-01-05T12:00:28.975Z,4.33
2019-01-05T12:03:43.498Z,4.33
2019-01-05T12:06:51.068Z,4.37
2019-01-05T12:09:52.336Z,4.37
2019-01-05T12:12:56.504Z,4.90
2019-01-05T12:15:57.928Z,4.50
2019-01-05T12:18:57.899Z,4.30
2019-01-05T12:21:52.718Z,4.07
2019-01-05T12:24:58.379Z,4.50
2019-01-05T12:28:01.457Z,4.53
2019-01-05T12:30:55.436Z,4.10
2019-01-05T12:33:58.283Z,4.33
2019-01-05T12:37:06.188Z,3.90
2019-01-05T12:40:06.011Z,4.13
2019-01-05T12:42:42.019Z,3.60
2019-01-05T12:45:43.984Z,3.70
2019-01-05T12:48:50.284Z,3.57
2019-01-05T12:51:57.977Z,3.80
2019-01-05T12:54:39.486Z,3.27
2019-01-05T12:57:30.067Z,3.80
2019-01-05T13:00:08.793Z,3.63
2019-01-05T13:03:16.055Z,3.57
2019-01-05T13:06:15.932Z,4.10
2019-01-05T13:09:15.321Z,3.83
2019-01-05T13:12:09.232Z,4.37
2019-01-05T13:15:09.020Z,4.43
2019-01-05T13:18:31.304Z,3.77
2019-01-05T13:21:15.757Z,3.63
2019-01-05T13:24:15.516Z,4.17
2019-01-05T13:27:13.756Z,3.60
2019-01-05T13:30:14.655Z,3.80
2019-01-05T13:33:16.055Z,4.37
2019-01-05T13:36:15.993Z,3.97
2019-01-05T13:39:09.675Z,5.73
2019-01-05T13:41:54.619Z,4.30
2019-01-05T13:44:52.959Z,5.33
2019-01-05T13:47:57.047Z,3.63
2019-01-05T13:51:07.439Z,3.67
2019-01-05T13:53:45.574Z,3.77
2019-01-05T13:56:32.952Z,3.53
2019-01-05T13:59:03.395Z,3.47
2019-01-05T14:01:42.417Z,4.73
2019-01-05T14:04:15.258Z,5.87
2019-01-05T14:07:01.440Z,3.90
2019-01-05T14:09:37.322Z,3.00
2019-01-05T14:12:07.186Z,4.20
2019-01-05T14:14:53.128Z,3.43
2019-01-05T14:17:28.952Z,4.27
2019-01-05T14:20:15.923Z,4.93
2019-01-05T14:22:45.839Z,3.67
2019-01-05T14:25:15.741Z,3.80
2019-01-05T14:27:54.552Z,3.70
2019-01-05T14:30:40.744Z,4.13
2019-01-05T14:33:16.093Z,4.20
2019-01-05T14:35:45.964Z,3.90
2019-01-05T14:38:21.511Z,4.03
2019-01-05T14:40:54.079Z,3.63
2019-01-05T14:43:35.992Z,3.50
2019-01-05T14:46:14.665Z,3.20
2019-01-05T14:48:47.066Z,3.53
2019-01-05T14:51:31.930Z,3.47
2019-01-05T14:54:01.815Z,4.73
2019-01-05T14:56:48.007Z,4.67
2019-01-05T14:59:23.819Z,4.03
2019-01-05T15:02:08.595Z,3.77
2019-01-05T15:04:54.831Z,4.20
2019-01-05T15:07:40.713Z,4.30
2019-01-05T15:10:27.253Z,3.70
2019-01-05T15:12:59.809Z,3.93
2019-01-05T15:15:29.708Z,3.80
2019-01-05T15:18:05.585Z,4.23
2019-01-05T15:20:53.580Z,4.20
2019-01-05T15:23:29.001Z,3.87
2019-01-05T15:26:14.811Z,3.80
2019-01-05T15:29:02.547Z,4.30
2019-01-05T15:31:44.148Z,5.30
2019-01-05T15:34:14.027Z,4.70
2019-01-05T15:36:53.534Z,4.47
2019-01-05T15:39:39.598Z,5.07
2019-01-05T15:42:15.328Z,5.37
2019-01-05T15:44:45.208Z,6.17
2019-01-05T15:47:27.184Z,5.33
2019-01-05T15:50:13.171Z,6.20
2019-01-05T15:52:59.530Z,5.93
2019-01-05T15:55:35.460Z,5.70
2019-01-05T15:58:11.117Z,6.30
2019-01-05T16:00:57.022Z,4.97
2019-01-05T16:03:32.887Z,5.97
2019-01-05T16:06:21.823Z,5.60
2019-01-05T16:08:57.396Z,6.60
2019-01-05T16:11:30.084Z,7.13
2019-01-05T16:14:05.900Z,6.13
2019-01-05T16:16:47.508Z,5.70
2019-01-05T16:19:29.497Z,5.30
2019-01-05T16:22:02.266Z,6.67
2019-01-05T16:24:41.021Z,6.13
2019-01-05T16:27:20.108Z,5.90
2019-01-05T16:30:06.325Z,4.90
2019-01-05T16:32:39.105Z,5.20
2019-01-05T16:35:25.209Z,5.60
2019-01-05T16:37:57.772Z,4.70
2019-01-05T16:40:27.643Z,6.20
2019-01-05T16:43:15.637Z,4.83
2019-01-05T16:45:54.413Z,4.70
2019-01-05T16:48:26.907Z,5.23
2019-01-05T16:50:56.807Z,6.40
2019-01-05T16:53:42.687Z,5.00
2019-01-05T16:56:12.568Z,4.57
2019-01-05T16:58:58.953Z,5.37
2019-01-05T17:01:43.979Z,5.23
2019-01-05T17:04:30.410Z,5.40
2019-01-05T17:07:09.325Z,4.93
2019-01-05T17:09:54.127Z,5.20
2019-01-05T17:12:33.215Z,4.50
2019-01-05T17:15:19.110Z,5.00
2019-01-05T17:18:05.321Z,5.37
2019-01-05T17:20:38.003Z,5.63
2019-01-05T17:23:16.711Z,5.87
2019-01-05T17:25:49.515Z,5.70
2019-01-05T17:28:28.493Z,5.03
2019-01-05T17:31:07.247Z,5.10
2019-01-05T17:33:40.232Z,5.40
2019-01-05T17:36:12.794Z,5.93
2019-01-05T17:38:42.703Z,5.73
2019-01-05T17:41:21.307Z,6.63
2019-01-05T17:43:57.133Z,7.33
2019-01-05T17:46:27.096Z,7.37
2019-01-05T17:48:59.755Z,6.67
2019-01-05T17:51:47.410Z,6.77
2019-01-05T17:54:29.505Z,6.77
2019-01-05T17:57:05.784Z,6.00
2019-01-05T17:59:44.460Z,7.27
2019-01-05T18:02:17.479Z,7.53
2019-01-05T18:04:47.418Z,7.03
2019-01-05T18:07:24.274Z,6.90
2019-01-05T18:09:56.996Z,7.07
2019-01-05T18:12:42.213Z,6.67
2019-01-05T18:15:18.029Z,6.13
2019-01-05T18:17:48.020Z,5.27
2019-01-05T18:20:20.674Z,5.43
2019-01-05T18:23:07.103Z,5.23
2019-01-05T18:25:52.231Z,5.20
2019-01-05T18:28:27.900Z,4.83
2019-01-05T18:31:09.662Z,4.63
2019-01-05T18:33:55.913Z,4.87
2019-01-05T18:36:28.525Z,4.33
2019-01-05T18:39:10.904Z,4.90
2019-01-05T18:41:56.773Z,5.00
2019-01-05T18:44:27.640Z,4.70
2019-01-05T18:47:02.613Z,4.47
2019-01-05T18:49:47.955Z,4.53
2019-01-05T18:52:24.838Z,5.70
2019-01-05T18:54:52.287Z,6.50
2019-01-05T18:57:31.408Z,4.07
2019-01-05T19:00:10.637Z,4.30
2019-01-05T19:02:58.977Z,4.27
2019-01-05T19:05:37.620Z,4.17
2019-01-05T19:08:22.721Z,3.90
2019-01-05T19:10:55.701Z,4.97
2019-01-05T19:13:37.890Z,4.27
2019-01-05T19:16:24.444Z,4.30
2019-01-05T19:18:57.349Z,4.23
2019-01-05T19:21:33.365Z,4.33
2019-01-05T19:24:21.015Z,4.60
2019-01-05T19:27:06.389Z,4.80
2019-01-05T19:29:39.329Z,4.40
2019-01-05T19:32:12.064Z,3.97
2019-01-05T19:34:57.364Z,3.93
2019-01-05T19:37:39.613Z,3.90
2019-01-05T19:40:26.262Z,4.33
2019-01-05T19:43:12.219Z,4.47
2019-01-05T19:45:56.958Z,3.40
2019-01-05T19:48:26.882Z,3.60
2019-01-05T19:51:13.087Z,4.50
2019-01-05T19:53:45.761Z,3.70
2019-01-05T19:56:33.837Z,4.37
2019-01-05T19:59:22.313Z,3.97
2019-01-05T20:01:52.195Z,3.83
2019-01-05T20:04:37.197Z,5.10
2019-01-05T20:07:09.834Z,4.43
2019-01-05T20:09:42.433Z,4.10
2019-01-05T20:12:27.206Z,4.43
2019-01-05T20:15:13.167Z,4.73
2019-01-05T20:17:52.072Z,5.10
2019-01-05T20:20:38.300Z,3.90
2019-01-05T20:23:24.416Z,4.30
2019-01-05T20:25:57.021Z,4.37
2019-01-05T20:28:26.951Z,3.33
2019-01-05T20:30:56.857Z,3.33
2019-01-05T20:33:35.834Z,2.73
2019-01-05T20:36:08.244Z,2.83
2019-01-05T20:38:50.069Z,3.03
2019-01-05T20:41:31.798Z,2.70
2019-01-05T20:44:17.715Z,2.77
2019-01-05T20:47:03.933Z,2.80
2019-01-05T20:49:46.174Z,2.63
2019-01-05T20:52:16.070Z,2.87
2019-01-05T20:54:57.823Z,2.20
2019-01-05T20:57:42.604Z,2.20
2019-01-05T21:00:12.512Z,2.80
2019-01-05T21:02:45.420Z,2.87
2019-01-05T21:05:15.356Z,2.40
2019-01-05T21:08:00.342Z,2.30
2019-01-05T21:10:33.371Z,2.70
2019-01-05T21:13:20.545Z,2.63
2019-01-05T21:15:50.449Z,2.60
2019-01-05T21:18:20.662Z,2.57
2019-01-05T21:21:05.223Z,2.70
2019-01-05T21:23:37.906Z,3.20
2019-01-05T21:26:07.807Z,2.83
2019-01-05T21:28:40.608Z,2.70
2019-01-05T21:31:16.180Z,2.77
2019-01-05T21:33:58.016Z,2.80
2019-01-05T21:36:36.975Z,2.83
2019-01-05T21:39:24.112Z,3.13
2019-01-05T21:41:56.981Z,3.37
2019-01-05T21:44:26.911Z,3.47
2019-01-05T21:46:56.806Z,2.70
2019-01-05T21:49:43.072Z,3.00
2019-01-05T21:52:15.636Z,2.90
2019-01-05T21:54:57.738Z,2.90
2019-01-05T21:57:27.667Z,3.13
2019-01-05T22:00:13.686Z,3.27
2019-01-05T22:02:46.297Z,2.70
2019-01-05T22:05:24.997Z,3.20
2019-01-05T22:08:03.704Z,2.90
2019-01-05T22:10:40.631Z,2.93
2019-01-05T22:13:25.394Z,3.50
2019-01-05T22:16:01.099Z,3.00
2019-01-05T22:18:31.110Z,2.83
2019-01-05T22:21:12.879Z,3.97
2019-01-05T22:23:58.846Z,3.40
2019-01-05T22:26:45.068Z,3.93
2019-01-05T22:29:30.004Z,3.53
2019-01-05T22:32:18.668Z,3.93
2019-01-05T22:34:54.260Z,3.70
2019-01-05T22:37:40.275Z,3.60
2019-01-05T22:40:28.151Z,4.17
2019-01-05T22:43:10.002Z,3.60
2019-01-05T22:45:58.268Z,3.63
2019-01-05T22:48:44.601Z,3.93
2019-01-05T22:51:32.802Z,3.33
2019-01-05T22:54:05.390Z,3.93
2019-01-05T22:56:53.432Z,4.50
2019-01-05T22:59:39.378Z,4.37
2019-01-05T23:02:14.940Z,4.10
2019-01-05T23:04:44.831Z,4.23
2019-01-05T23:07:23.728Z,4.47
2019-01-05T23:10:09.933Z,4.10
2019-01-05T23:12:42.901Z,3.77
2019-01-05T23:15:28.769Z,3.87
2019-01-05T23:18:04.368Z,3.77
2019-01-05T23:20:50.713Z,3.63
2019-01-05T23:23:32.402Z,3.13
2019-01-05T23:26:14.109Z,3.83
2019-01-05T23:29:01.864Z,3.83
2019-01-05T23:31:40.836Z,3.97
2019-01-05T23:34:25.879Z,3.90
2019-01-05T23:36:55.786Z,4.93
2019-01-05T23:39:25.714Z,3.63
2019-01-05T23:41:55.686Z,3.63
2019-01-05T23:44:34.470Z,3.83
2019-01-05T23:47:13.388Z,3.00
2019-01-05T23:49:58.191Z,2.60
2019-01-05T23:52:34.087Z,2.50
2019-01-05T23:55:07.890Z,2.57
2019-01-05T23:57:52.598Z,2.50
